Time;durP1;ratioP1;P1;durP2;ratioP2;P2;SDS_P1;SDS_P2;PMS_P1;PMS_P2;Temp;Humidity;BMP_temperature;BMP_pressure;BME280_temperature;BME280_humidity;BME280_pressure;Samples;Min_cycle;Max_cycle;Signal;HPM_P1;HPM_P2
2024/01/19 00:00:50;;;;;;;19.92;10.85;;;-4.80;99.90;;;;;;503000;236;27500;-66
2024/01/19 00:02:53;;;;;;;19.70;11.60;;;;;;;;;;503016;236;27469;-65
2024/01/19 00:04:55;;;;;;;19.83;11.75;;;;;;;;;;502995;236;26802;-66
2024/01/19 00:06:58;;;;;;;25.40;11.18;;;;;;;;;;503023;236;27355;-65
2024/01/19 00:08:59;;;;;;;18.10;10.38;;;-4.90;99.90;;;;;;503032;236;26785;-65
2024/01/19 00:11:02;;;;;;;22.50;10.45;;;;;;;;;;503054;236;27565;-66
2024/01/19 00:13:04;;;;;;;22.52;10.68;;;;;;;;;;503037;236;26581;-66
2024/01/19 00:15:05;;;;;;;21.92;10.98;;;-4.80;99.90;;;;;;502990;236;27789;-65
2024/01/19 00:17:08;;;;;;;27.27;11.63;;;;;;;;;;503049;236;27446;-66
2024/01/19 00:19:10;;;;;;;19.92;11.02;;;-4.90;99.90;;;;;;503068;236;27013;-65
2024/01/19 00:21:11;;;;;;;21.65;10.60;;;;;;;;;;503014;236;27996;-66
2024/01/19 00:23:14;;;;;;;21.60;10.80;;;;;;;;;;503054;236;26598;-65
2024/01/19 00:25:15;;;;;;;21.87;11.57;;;-4.80;99.90;;;;;;502885;236;26838;-66
2024/01/19 00:27:16;;;;;;;23.83;12.15;;;-4.70;99.90;;;;;;502972;236;27497;-65
2024/01/19 00:29:20;;;;;;;20.92;10.07;;;-4.60;99.90;;;;;;503108;236;27602;-66
2024/01/19 00:31:23;;;;;;;18.80;9.05;;;;;;;;;;502982;236;27591;-65
2024/01/19 00:33:24;;;;;;;18.45;10.05;;;-4.60;99.90;;;;;;503038;236;26705;-66
2024/01/19 00:35:25;;;;;;;21.75;10.02;;;-4.50;99.90;;;;;;502966;236;27984;-65
2024/01/19 00:37:26;;;;;;;21.15;9.70;;;-4.50;99.90;;;;;;502994;236;28067;-65
2024/01/19 00:39:29;;;;;;;17.05;10.35;;;;;;;;;;503049;236;27601;-65
2024/01/19 00:41:31;;;;;;;17.40;9.60;;;;;;;;;;503022;236;26713;-65
2024/01/19 00:43:34;;;;;;;18.30;11.43;;;;;;;;;;502995;236;26716;-66
2024/01/19 00:45:35;;;;;;;17.05;10.82;;;-4.10;99.90;;;;;;502972;236;27133;-65
2024/01/19 00:47:38;;;;;;;16.80;9.18;;;;;;;;;;503011;236;27080;-65
2024/01/19 00:49:39;;;;;;;16.62;9.25;;;-4.40;99.90;;;;;;503003;236;26668;-65
2024/01/19 00:51:41;;;;;;;17.58;9.88;;;;;;;;;;502856;236;27604;-66
2024/01/19 00:53:44;;;;;;;16.23;9.45;;;;;;;;;;503016;236;26618;-65
2024/01/19 00:55:45;;;;;;;19.50;10.10;;;-4.30;99.90;;;;;;502981;236;27054;-65
2024/01/19 00:57:46;;;;;;;15.48;9.48;;;-4.30;99.90;;;;;;503043;236;27222;-66
2024/01/19 00:59:47;;;;;;;22.35;11.07;;;-4.30;99.90;;;;;;503004;236;27094;-65
2024/01/19 01:01:50;;;;;;;16.70;9.57;;;;;;;;;;503014;236;27490;-65
2024/01/19 01:03:51;;;;;;;15.88;9.43;;;-4.50;99.90;;;;;;503021;236;26878;-65
2024/01/19 01:05:56;;;;;;;17.25;9.77;;;;;;;;;;502994;236;27134;-65
2024/01/19 01:07:56;;;;;;;16.25;9.27;;;;;;;;;;502841;236;27237;-65
2024/01/19 01:09:58;;;;;;;16.35;10.35;;;;;;;;;;503042;236;26634;-66
2024/01/19 01:12:01;;;;;;;20.33;9.77;;;;;;;;;;503044;236;27048;-66
2024/01/19 01:14:03;;;;;;;14.48;8.80;;;;;;;;;;503026;236;26625;-65
2024/01/19 01:16:04;;;;;;;18.17;10.27;;;-4.40;99.90;;;;;;503002;236;26717;-66
2024/01/19 01:18:06;;;;;;;14.48;10.15;;;-4.40;99.90;;;;;;503022;236;27104;-65
2024/01/19 01:20:10;;;;;;;19.25;10.95;;;;;;;;;;503009;236;27049;-66
2024/01/19 01:22:13;;;;;;;17.52;10.35;;;;;;;;;;502871;236;26584;-65
2024/01/19 01:24:13;;;;;;;28.05;12.07;;;;;;;;;;502861;236;27257;-65
2024/01/19 01:26:14;;;;;;;16.27;9.98;;;-4.60;99.90;;;;;;502929;236;26605;-65
2024/01/19 01:28:17;;;;;;;20.48;10.70;;;;;;;;;;503033;236;27442;-65
2024/01/19 01:30:18;;;;;;;18.55;11.43;;;-4.60;99.90;;;;;;503016;236;26551;-65
2024/01/19 01:32:19;;;;;;;17.35;10.07;;;-4.50;99.90;;;;;;502979;236;27191;-65
2024/01/19 01:34:22;;;;;;;20.30;12.07;;;;;;;;;;503035;236;27208;-66
2024/01/19 01:36:24;;;;;;;21.42;11.25;;;;;;;;;;502997;236;26527;-65
2024/01/19 01:38:25;;;;;;;21.65;10.45;;;-4.50;99.90;;;;;;503018;236;26653;-65
2024/01/19 01:40:27;;;;;;;22.98;10.75;;;-4.50;99.90;;;;;;503073;236;27729;-66
2024/01/19 01:42:28;;;;;;;29.15;12.20;;;-4.40;99.90;;;;;;503023;236;27696;-65
2024/01/19 01:44:29;;;;;;;21.87;10.95;;;-4.40;99.90;;;;;;502992;236;27144;-65
2024/01/19 01:46:30;;;;;;;18.33;10.65;;;-4.50;99.90;;;;;;503018;236;27123;-65
2024/01/19 01:48:33;;;;;;;18.35;11.27;;;;;;;;;;503037;236;27061;-65
2024/01/19 01:50:34;;;;;;;20.48;11.10;;;-4.70;99.90;;;;;;503032;236;26574;-65
2024/01/19 01:52:37;;;;;;;17.20;10.48;;;;;;;;;;502980;236;27137;-65
2024/01/19 01:54:38;;;;;;;17.87;10.27;;;-4.70;99.90;;;;;;502821;236;27058;-66
2024/01/19 01:56:40;;;;;;;20.40;10.95;;;;;;;;;;503020;236;27700;-65
2024/01/19 01:58:41;;;;;;;19.42;11.12;;;-4.70;99.90;;;;;;502982;236;26665;-66
2024/01/19 02:00:43;;;;;;;22.73;10.85;;;-4.70;99.90;;;;;;503012;236;28596;-65
2024/01/19 02:02:45;;;;;;;19.60;10.80;;;-4.80;99.90;;;;;;503047;236;27733;-65
2024/01/19 02:04:45;;;;;;;18.33;11.38;;;-4.80;99.90;;;;;;502972;236;27161;-65
2024/01/19 02:06:47;;;;;;;20.40;10.32;;;-4.80;99.90;;;;;;502934;236;27052;-64
2024/01/19 02:08:49;;;;;;;19.37;10.60;;;;;;;;;;502982;236;29014;-66
2024/01/19 02:10:51;;;;;;;19.08;10.40;;;;;;;;;;503029;236;26756;-66
2024/01/19 02:12:53;;;;;;;18.35;10.10;;;-5.00;99.90;;;;;;502959;236;26582;-65
2024/01/19 02:14:54;;;;;;;20.17;10.30;;;-4.90;99.90;;;;;;502935;236;27471;-65
2024/01/19 02:16:55;;;;;;;19.85;10.75;;;-4.90;99.90;;;;;;503057;236;27564;-66
2024/01/19 02:18:56;;;;;;;16.70;10.48;;;-4.90;99.90;;;;;;503019;236;27438;-65
2024/01/19 02:20:58;;;;;;;19.23;11.10;;;-5.00;99.90;;;;;;502999;236;28053;-65
2024/01/19 02:23:00;;;;;;;22.42;11.45;;;;;;;;;;503000;236;28765;-65
2024/01/19 02:25:03;;;;;;;20.75;11.23;;;;;;;;;;502981;236;27048;-65
2024/01/19 02:27:05;;;;;;;18.33;11.18;;;;;;;;;;502987;236;26686;-65
2024/01/19 02:29:08;;;;;;;17.37;11.50;;;;;;;;;;503012;236;27132;-66
2024/01/19 02:31:09;;;;;;;22.73;12.40;;;-5.00;99.90;;;;;;503018;236;26876;-65
2024/01/19 02:33:10;;;;;;;20.48;11.52;;;-4.90;99.90;;;;;;502997;236;27501;-65
2024/01/19 02:35:11;;;;;;;22.30;11.98;;;-5.00;99.90;;;;;;502948;236;28051;-65
2024/01/19 02:37:13;;;;;;;20.70;11.65;;;-4.90;99.90;;;;;;502990;236;27962;-64
2024/01/19 02:39:14;;;;;;;22.02;13.00;;;-5.00;99.90;;;;;;502987;236;27485;-65
2024/01/19 02:41:15;;;;;;;20.55;11.32;;;-5.10;99.90;;;;;;502995;236;27542;-65
2024/01/19 02:43:16;;;;;;;19.17;12.32;;;-5.10;99.90;;;;;;502964;236;27481;-65
2024/01/19 02:45:17;;;;;;;19.10;12.60;;;-5.10;99.90;;;;;;503017;236;27537;-66
2024/01/19 02:47:19;;;;;;;18.12;11.40;;;-5.10;99.90;;;;;;503030;236;27455;-65
2024/01/19 02:49:20;;;;;;;18.08;11.90;;;-5.10;99.90;;;;;;503016;236;28048;-66
2024/01/19 02:51:21;;;;;;;18.73;10.50;;;-5.20;99.90;;;;;;502988;236;28621;-65
2024/01/19 02:53:23;;;;;;;17.83;10.55;;;-5.30;99.90;;;;;;503047;236;27494;-65
2024/01/19 02:55:25;;;;;;;17.50;10.20;;;;;;;;;;502940;236;27479;-65
2024/01/19 02:57:26;;;;;;;19.52;12.05;;;-5.20;99.90;;;;;;502989;236;28232;-65
2024/01/19 02:59:29;;;;;;;22.02;11.85;;;-5.20;99.90;;;;;;502990;236;27482;-65
2024/01/19 03:01:29;;;;;;;20.40;11.55;;;-5.20;99.90;;;;;;502970;236;27530;-65
2024/01/19 03:03:30;;;;;;;23.52;11.85;;;-5.20;99.90;;;;;;502952;236;27485;-66
2024/01/19 03:05:32;;;;;;;18.52;11.80;;;-5.20;99.90;;;;;;502997;236;27454;-65
2024/01/19 03:07:33;;;;;;;18.83;11.82;;;-5.20;99.90;;;;;;502938;236;27587;-65
2024/01/19 03:09:35;;;;;;;22.15;10.40;;;;;;;;;;503048;236;27974;-66
2024/01/19 03:11:36;;;;;;;20.42;12.30;;;-5.30;99.90;;;;;;503029;236;26816;-65
2024/01/19 03:13:37;;;;;;;19.00;10.57;;;-5.30;99.90;;;;;;503019;236;27435;-65
2024/01/19 03:15:40;;;;;;;23.12;11.50;;;;;;;;;;502806;236;28040;-66
2024/01/19 03:17:41;;;;;;;16.45;9.90;;;-5.50;99.90;;;;;;503046;236;26969;-65
2024/01/19 03:19:42;;;;;;;16.00;10.23;;;-5.50;99.90;;;;;;503038;236;27652;-65
2024/01/19 03:21:44;;;;;;;25.15;13.00;;;-5.60;99.90;;;;;;502973;236;27443;-65
2024/01/19 03:23:45;;;;;;;18.45;11.18;;;-5.60;99.90;;;;;;503052;236;27878;-65
2024/01/19 03:25:46;;;;;;;20.58;11.82;;;-5.60;99.90;;;;;;502965;236;27490;-66
2024/01/19 03:27:47;;;;;;;19.87;11.60;;;-5.60;99.90;;;;;;503001;236;27537;-65
2024/01/19 03:29:49;;;;;;;17.52;10.77;;;-5.60;99.90;;;;;;503014;236;27500;-65
2024/01/19 03:31:50;;;;;;;17.62;11.23;;;-5.60;99.90;;;;;;503017;236;27481;-67
2024/01/19 03:33:51;;;;;;;18.95;11.70;;;-5.60;99.90;;;;;;502973;236;27439;-65
2024/01/19 03:35:53;;;;;;;20.15;12.20;;;-5.70;99.90;;;;;;502969;236;27947;-65
2024/01/19 03:37:54;;;;;;;24.05;12.37;;;-5.70;99.90;;;;;;503002;236;27978;-65
2024/01/19 03:39:55;;;;;;;24.33;11.93;;;-5.70;99.90;;;;;;503019;236;27457;-66
2024/01/19 03:41:56;;;;;;;18.35;10.35;;;-5.70;99.90;;;;;;503027;236;27486;-66
2024/01/19 03:43:58;;;;;;;20.88;11.43;;;-5.70;99.90;;;;;;503060;236;27536;-65
2024/01/19 03:45:59;;;;;;;18.65;9.82;;;-5.80;99.90;;;;;;502908;236;27500;-65
2024/01/19 03:48:00;;;;;;;15.35;10.35;;;-5.90;99.90;;;;;;502991;236;29050;-65
2024/01/19 03:50:02;;;;;;;18.55;10.30;;;-5.90;99.90;;;;;;503098;236;27967;-65
2024/01/19 03:52:03;;;;;;;16.67;9.73;;;-5.90;99.90;;;;;;503015;236;27493;-66
2024/01/19 03:54:04;;;;;;;16.90;9.30;;;-5.90;99.90;;;;;;503074;236;27451;-65
2024/01/19 03:56:05;;;;;;;19.60;10.32;;;-6.00;99.90;;;;;;502995;236;27460;-65
2024/01/19 03:58:06;;;;;;;17.73;10.60;;;-6.10;99.90;;;;;;503073;236;27486;-66
2024/01/19 04:00:08;;;;;;;17.70;9.20;;;-6.10;99.90;;;;;;503099;236;27620;-65
2024/01/19 04:02:09;;;;;;;14.95;10.00;;;-6.10;99.90;;;;;;503058;236;27984;-65
2024/01/19 04:04:10;;;;;;;16.60;10.20;;;-6.10;99.90;;;;;;503084;236;28987;-65
2024/01/19 04:06:11;;;;;;;17.95;11.18;;;-6.00;99.90;;;;;;502994;236;27456;-65
2024/01/19 04:08:13;;;;;;;18.30;9.93;;;-6.10;99.90;;;;;;503093;236;27470;-67
2024/01/19 04:10:14;;;;;;;20.05;10.38;;;-6.10;99.90;;;;;;503046;236;27450;-65
2024/01/19 04:12:15;;;;;;;19.10;10.93;;;-6.10;99.90;;;;;;503086;236;27499;-65
2024/01/19 04:14:16;;;;;;;21.23;10.50;;;-6.10;99.90;;;;;;503085;236;27434;-65
2024/01/19 04:16:18;;;;;;;15.13;9.85;;;-6.10;99.90;;;;;;502930;236;27929;-65
2024/01/19 04:18:19;;;;;;;18.15;10.63;;;-6.10;99.90;;;;;;503100;236;28076;-65
2024/01/19 04:20:20;;;;;;;19.40;11.55;;;-6.00;99.90;;;;;;503096;236;27592;-64
2024/01/19 04:22:21;;;;;;;22.33;11.23;;;-6.10;99.90;;;;;;503066;236;27539;-65
2024/01/19 04:24:23;;;;;;;17.95;10.98;;;-6.10;99.90;;;;;;503078;236;27609;-65
2024/01/19 04:26:24;;;;;;;21.20;11.55;;;-6.00;99.90;;;;;;503008;236;27557;-65
2024/01/19 04:28:25;;;;;;;24.30;12.07;;;-6.10;99.90;;;;;;503040;236;28020;-65
2024/01/19 04:30:27;;;;;;;17.77;10.60;;;-6.20;99.90;;;;;;503001;236;28970;-65
2024/01/19 04:32:28;;;;;;;17.20;11.10;;;-6.20;99.90;;;;;;503016;236;27573;-65
2024/01/19 04:34:29;;;;;;;21.02;11.95;;;-6.30;99.90;;;;;;502964;236;27492;-66
2024/01/19 04:36:30;;;;;;;21.90;11.45;;;-6.20;99.90;;;;;;503029;236;27476;-66
2024/01/19 04:38:32;;;;;;;17.70;10.77;;;-6.30;99.90;;;;;;503003;236;27592;-66
2024/01/19 04:40:33;;;;;;;19.62;10.15;;;-6.20;99.90;;;;;;502974;236;27577;-65
2024/01/19 04:42:34;;;;;;;18.75;10.27;;;-6.30;99.90;;;;;;503051;236;27903;-65
2024/01/19 04:44:35;;;;;;;19.23;12.05;;;-6.40;99.90;;;;;;502958;236;27513;-66
2024/01/19 04:46:37;;;;;;;20.05;11.63;;;-6.40;99.90;;;;;;502953;236;27530;-65
2024/01/19 04:48:38;;;;;;;16.85;11.30;;;-6.40;99.90;;;;;;502991;236;27464;-65
2024/01/19 04:50:39;;;;;;;22.17;11.23;;;-6.40;99.90;;;;;;503063;236;27532;-66
2024/01/19 04:52:40;;;;;;;25.12;10.98;;;-6.40;99.90;;;;;;503053;236;27461;-65
2024/01/19 04:54:42;;;;;;;17.65;10.68;;;-6.40;99.90;;;;;;502938;236;28018;-65
2024/01/19 04:56:43;;;;;;;23.40;12.37;;;-6.50;99.90;;;;;;503034;236;27952;-65
2024/01/19 04:58:44;;;;;;;21.65;10.88;;;-6.50;99.90;;;;;;503023;236;27461;-64
2024/01/19 05:00:46;;;;;;;18.30;11.12;;;-6.60;99.90;;;;;;502940;236;27470;-66
2024/01/19 05:02:47;;;;;;;20.02;10.80;;;-6.50;99.90;;;;;;503046;236;27453;-65
2024/01/19 05:04:48;;;;;;;18.58;10.77;;;-6.50;99.90;;;;;;503001;236;27512;-66
2024/01/19 05:06:49;;;;;;;27.25;11.50;;;-6.60;99.90;;;;;;503031;236;28971;-65
2024/01/19 05:08:51;;;;;;;17.20;10.57;;;-6.60;99.90;;;;;;503017;236;28011;-65
2024/01/19 05:10:52;;;;;;;17.42;9.25;;;-6.60;99.90;;;;;;503013;236;27557;-66
2024/01/19 05:12:53;;;;;;;21.12;10.45;;;-6.60;99.90;;;;;;503012;236;27486;-65
2024/01/19 05:14:54;;;;;;;19.08;11.75;;;-6.60;99.90;;;;;;502952;236;27568;-66
2024/01/19 05:16:56;;;;;;;18.20;11.18;;;-6.60;99.90;;;;;;503056;236;27512;-66
2024/01/19 05:18:57;;;;;;;18.75;10.13;;;-6.50;99.90;;;;;;503029;236;27474;-65
2024/01/19 05:20:58;;;;;;;17.15;10.55;;;-6.50;99.90;;;;;;503021;236;28059;-65
2024/01/19 05:22:59;;;;;;;22.20;11.35;;;-6.50;99.90;;;;;;503014;236;27438;-65
2024/01/19 05:25:02;;;;;;;21.02;10.80;;;-6.40;99.90;;;;;;503000;236;27480;-65
2024/01/19 05:27:02;;;;;;;21.30;12.10;;;-6.40;99.90;;;;;;502929;236;27498;-65
2024/01/19 05:29:03;;;;;;;23.50;12.98;;;-6.40;99.90;;;;;;503020;236;27594;-65
2024/01/19 05:31:04;;;;;;;21.60;12.10;;;-6.30;99.90;;;;;;503021;236;27494;-65
2024/01/19 05:33:06;;;;;;;30.00;16.35;;;-6.20;99.90;;;;;;503004;236;28503;-64
2024/01/19 05:35:07;;;;;;;27.17;15.73;;;-6.10;99.90;;;;;;503033;236;27961;-65
2024/01/19 05:37:08;;;;;;;26.30;14.90;;;-6.00;99.90;;;;;;503032;236;27469;-66
2024/01/19 05:39:09;;;;;;;32.00;14.55;;;-6.00;99.90;;;;;;502993;236;27450;-65
2024/01/19 05:41:11;;;;;;;31.65;15.05;;;-6.00;99.90;;;;;;502998;236;27478;-65
2024/01/19 05:43:12;;;;;;;33.03;15.38;;;-6.00;99.90;;;;;;503033;236;27556;-66
2024/01/19 05:45:13;;;;;;;35.05;16.62;;;-5.90;99.90;;;;;;502990;236;27909;-66
2024/01/19 05:47:14;;;;;;;31.08;17.23;;;-5.90;99.90;;;;;;503019;236;27969;-66
2024/01/19 05:49:16;;;;;;;31.55;18.65;;;-5.70;99.90;;;;;;502971;236;27455;-65
2024/01/19 05:51:17;;;;;;;39.78;18.40;;;-5.70;99.90;;;;;;503043;236;27445;-65
2024/01/19 05:53:18;;;;;;;41.25;20.70;;;-5.50;99.90;;;;;;502992;236;27473;-65
2024/01/19 05:55:19;;;;;;;40.15;19.27;;;-5.40;99.90;;;;;;502995;236;27467;-65
2024/01/19 05:57:21;;;;;;;37.50;19.05;;;-5.30;99.90;;;;;;502845;236;27474;-66
2024/01/19 05:59:22;;;;;;;39.05;18.40;;;-5.30;99.90;;;;;;503017;236;28020;-65
2024/01/19 06:01:23;;;;;;;36.30;19.37;;;-5.20;99.90;;;;;;503041;236;27564;-65
2024/01/19 06:03:24;;;;;;;51.37;19.92;;;-5.10;99.90;;;;;;503020;236;27565;-66
2024/01/19 06:05:26;;;;;;;37.47;19.42;;;-5.10;99.90;;;;;;502956;236;27517;-65
2024/01/19 06:07:27;;;;;;;46.45;22.58;;;-5.10;99.90;;;;;;502981;236;27588;-66
2024/01/19 06:09:29;;;;;;;45.45;21.10;;;;;;;;;;503037;236;27493;-65
2024/01/19 06:11:31;;;;;;;50.20;21.98;;;-5.00;99.90;;;;;;502981;236;26808;-66
2024/01/19 06:13:32;;;;;;;37.95;18.65;;;-5.00;99.90;;;;;;502936;236;27522;-65
2024/01/19 06:15:35;;;;;;;75.18;22.92;;;;;;;;;;502974;236;27509;-66
2024/01/19 06:17:36;;;;;;;50.28;21.65;;;-5.00;99.90;;;;;;502968;236;27091;-66
2024/01/19 06:19:37;;;;;;;67.18;22.17;;;-4.90;99.90;;;;;;502933;236;27458;-65
2024/01/19 06:21:38;;;;;;;40.70;21.10;;;-5.00;99.90;;;;;;502926;236;27533;-65
2024/01/19 06:23:39;;;;;;;54.00;22.20;;;-4.90;99.90;;;;;;502998;236;27439;-66
2024/01/19 06:25:41;;;;;;;57.40;22.25;;;-4.90;99.90;;;;;;502956;236;27965;-66
2024/01/19 06:27:44;;;;;;;59.88;23.05;;;;;;;;;;502823;236;27902;-65
2024/01/19 06:29:46;;;;;;;49.88;19.87;;;;;;;;;;502937;236;27357;-66
2024/01/19 06:31:47;;;;;;;51.05;22.25;;;-4.90;99.90;;;;;;503018;236;26908;-66
2024/01/19 06:33:49;;;;;;;55.12;20.73;;;;;;;;;;503008;236;27429;-65
2024/01/19 06:35:52;;;;;;;59.05;23.12;;;;;;;;;;502988;236;27023;-66
2024/01/19 06:37:54;;;;;;;41.88;21.65;;;;;;;;;;503018;236;26747;-65
2024/01/19 06:39:55;;;;;;;49.25;22.92;;;-4.70;99.90;;;;;;503003;236;26609;-66
2024/01/19 06:41:57;;;;;;;54.38;23.02;;;-4.60;99.90;;;;;;503026;236;27526;-66
2024/01/19 06:43:59;;;;;;;60.72;22.92;;;;;;;;;;503034;236;27462;-65
2024/01/19 06:46:02;;;;;;;70.75;22.20;;;;;;;;;;502986;236;26574;-64
2024/01/19 06:48:04;;;;;;;49.15;19.75;;;;;;;;;;503036;236;27306;-66
2024/01/19 06:50:06;;;;;;;40.78;20.98;;;;;;;;;;502980;236;26926;-65
2024/01/19 06:52:09;;;;;;;49.10;21.23;;;;;;;;;;502952;236;26793;-65
2024/01/19 06:54:11;;;;;;;40.63;19.77;;;;;;;;;;503016;236;26587;-66
2024/01/19 06:56:14;;;;;;;36.85;17.65;;;;;;;;;;502968;236;26664;-65
2024/01/19 06:58:16;;;;;;;35.38;18.48;;;;;;;;;;503026;236;27189;-65
2024/01/19 07:00:19;;;;;;;43.87;20.30;;;;;;;;;;503059;236;26835;-66
2024/01/19 07:02:21;;;;;;;40.40;19.90;;;;;;;;;;503014;236;27240;-66
2024/01/19 07:04:24;;;;;;;48.67;20.27;;;;;;;;;;503036;236;26675;-65
2024/01/19 07:06:26;;;;;;;40.25;20.27;;;;;;;;;;502905;236;27318;-65
2024/01/19 07:08:27;;;;;;;38.95;20.10;;;-4.30;99.90;;;;;;502996;236;28208;-66
2024/01/19 07:10:30;;;;;;;41.58;18.45;;;;;;;;;;502986;236;27459;-65
2024/01/19 07:12:31;;;;;;;40.90;20.25;;;-4.30;99.90;;;;;;503008;236;26781;-65
2024/01/19 07:14:33;;;;;;;43.87;20.20;;;;;;;;;;503004;236;27890;-65
2024/01/19 07:16:36;;;;;;;42.80;19.98;;;;;;;;;;502997;236;26573;-66
2024/01/19 07:18:37;;;;;;;34.97;18.73;;;-4.10;99.90;;;;;;503066;236;26657;-65
2024/01/19 07:20:38;;;;;;;37.50;20.33;;;-4.10;99.90;;;;;;503058;236;27006;-66
2024/01/19 07:22:39;;;;;;;39.72;19.95;;;-4.10;99.90;;;;;;503030;236;27149;-66
2024/01/19 07:24:41;;;;;;;42.90;20.02;;;-4.10;99.90;;;;;;502955;236;27442;-65
2024/01/19 07:26:43;;;;;;;44.63;21.05;;;;;;;;;;503035;236;27043;-66
2024/01/19 07:28:46;;;;;;;35.95;19.92;;;;;;;;;;502859;236;26630;-66
2024/01/19 07:30:47;;;;;;;39.38;21.37;;;-4.00;99.90;;;;;;503024;236;27459;-65
2024/01/19 07:32:48;;;;;;;35.63;21.25;;;-4.00;99.90;;;;;;502931;236;27073;-65
2024/01/19 07:34:49;;;;;;;42.40;21.35;;;-4.00;99.90;;;;;;503007;236;27267;-65
2024/01/19 07:36:52;;;;;;;37.28;20.33;;;;;;;;;;503018;236;27148;-66
2024/01/19 07:38:54;;;;;;;38.60;20.30;;;-4.00;99.90;;;;;;502992;236;26566;-66
2024/01/19 07:40:56;;;;;;;39.28;19.52;;;;;;;;;;502904;236;27075;-65
2024/01/19 07:42:57;;;;;;;30.98;17.48;;;-4.00;99.90;;;;;;503001;236;27386;-66
2024/01/19 07:44:59;;;;;;;34.58;18.08;;;;;;;;;;502952;236;27650;-65
2024/01/19 07:47:00;;;;;;;37.17;20.95;;;-4.10;99.90;;;;;;502944;236;26546;-66
2024/01/19 07:49:02;;;;;;;39.58;19.90;;;-4.00;99.90;;;;;;502882;236;27602;-66
2024/01/19 07:51:04;;;;;;;39.75;20.15;;;;;;;;;;502781;236;28756;-65
2024/01/19 07:53:05;;;;;;;38.35;21.00;;;-4.00;99.90;;;;;;502723;236;26801;-65
2024/01/19 07:55:07;;;;;;;39.08;20.05;;;-3.90;99.90;;;;;;502746;236;27189;-66
2024/01/19 07:57:08;;;;;;;37.33;19.50;;;-3.80;99.90;;;;;;502833;236;27904;-65
2024/01/19 07:59:09;;;;;;;37.53;20.65;;;-3.80;99.90;;;;;;502918;236;26995;-65
2024/01/19 08:01:10;;;;;;;40.80;19.73;;;-3.80;99.90;;;;;;502998;236;27254;-65
2024/01/19 08:03:13;;;;;;;39.92;20.27;;;;;;;;;;503040;236;27284;-66
2024/01/19 08:05:14;;;;;;;39.40;19.83;;;-3.80;99.90;;;;;;502956;236;27119;-66
2024/01/19 08:07:15;;;;;;;38.30;20.27;;;-3.70;99.90;;;;;;502998;236;27227;-65
2024/01/19 08:09:17;;;;;;;40.55;18.42;;;-3.80;99.90;;;;;;502930;236;27162;-66
2024/01/19 08:11:18;;;;;;;41.55;20.98;;;-3.70;99.90;;;;;;503038;236;27174;-67
2024/01/19 08:13:19;;;;;;;45.12;21.27;;;-3.70;99.90;;;;;;503038;236;27291;-65
2024/01/19 08:15:20;;;;;;;41.95;20.37;;;-3.60;99.90;;;;;;502981;236;27799;-66
2024/01/19 08:17:22;;;;;;;39.92;20.25;;;-3.60;99.90;;;;;;502993;236;27838;-66
2024/01/19 08:19:23;;;;;;;37.63;18.80;;;-3.60;99.90;;;;;;503039;236;27074;-66
2024/01/19 08:21:25;;;;;;;44.30;23.92;;;-3.50;99.90;;;;;;503044;236;27544;-66
2024/01/19 08:23:25;;;;;;;48.90;26.42;;;-3.50;99.90;;;;;;503005;236;27337;-65
2024/01/19 08:25:27;;;;;;;42.28;20.33;;;-3.40;99.90;;;;;;502973;236;27500;-66
2024/01/19 08:27:28;;;;;;;41.42;21.25;;;-3.30;99.90;;;;;;503006;236;27472;-66
2024/01/19 08:29:32;;;;;;;41.55;20.80;;;-3.30;99.90;;;;;;503063;236;27725;-65
2024/01/19 08:31:30;;;;;;;37.03;18.35;;;-3.40;99.90;;;;;;502789;236;27430;-66
2024/01/19 08:33:32;;;;;;;37.00;17.98;;;-3.30;99.90;;;;;;503029;236;27203;-66
2024/01/19 08:35:33;;;;;;;38.95;19.23;;;-3.30;99.90;;;;;;502948;236;27375;-65
2024/01/19 08:37:34;;;;;;;33.90;17.87;;;-3.30;99.90;;;;;;503061;236;27190;-67
2024/01/19 08:39:37;;;;;;;35.35;18.27;;;-3.20;99.90;;;;;;503054;236;27538;-65
2024/01/19 08:41:37;;;;;;;39.33;18.33;;;-3.20;99.90;;;;;;502929;236;27897;-65
2024/01/19 08:43:38;;;;;;;31.52;17.62;;;-3.10;99.90;;;;;;503046;236;27918;-66
2024/01/19 08:45:39;;;;;;;34.30;18.12;;;-3.10;99.90;;;;;;503037;236;27316;-66
2024/01/19 08:47:41;;;;;;;33.55;17.98;;;-3.10;99.90;;;;;;503085;236;27463;-66
2024/01/19 08:49:42;;;;;;;37.13;18.48;;;-3.10;99.90;;;;;;503029;236;27561;-66
2024/01/19 08:51:44;;;;;;;33.00;17.83;;;-3.10;99.90;;;;;;503030;236;27287;-65
2024/01/19 08:53:44;;;;;;;34.30;17.40;;;-3.00;99.90;;;;;;503020;236;28337;-65
2024/01/19 08:55:46;;;;;;;36.03;18.67;;;-2.90;99.90;;;;;;503027;236;27912;-66
2024/01/19 08:57:47;;;;;;;36.40;16.50;;;-2.80;99.90;;;;;;503023;236;27486;-66
2024/01/19 08:59:48;;;;;;;32.28;16.83;;;-2.80;99.90;;;;;;502971;236;27427;-66
2024/01/19 09:01:49;;;;;;;38.25;18.73;;;-2.80;99.90;;;;;;502976;236;27533;-67
2024/01/19 09:03:52;;;;;;;41.25;20.52;;;-2.80;99.90;;;;;;503062;236;27543;-67
2024/01/19 09:05:53;;;;;;;35.83;19.20;;;-2.80;99.90;;;;;;503016;236;27590;-66
2024/01/19 09:07:54;;;;;;;34.28;18.77;;;-2.70;99.90;;;;;;503010;236;27940;-66
2024/01/19 09:09:56;;;;;;;35.50;18.02;;;-2.70;99.90;;;;;;503041;236;29005;-66
2024/01/19 09:11:57;;;;;;;35.38;18.37;;;-2.70;99.90;;;;;;503018;236;27515;-66
2024/01/19 09:13:58;;;;;;;40.83;19.67;;;-2.60;99.90;;;;;;503024;236;27450;-65
2024/01/19 09:15:59;;;;;;;33.50;17.73;;;-2.50;99.90;;;;;;502969;236;27503;-66
2024/01/19 09:18:01;;;;;;;36.40;17.87;;;-2.60;99.90;;;;;;502983;236;27882;-66
2024/01/19 09:20:04;;;;;;;33.58;17.52;;;-2.40;99.90;;;;;;503021;236;27985;-66
2024/01/19 09:22:03;;;;;;;31.08;17.35;;;-2.20;99.90;;;;;;502889;236;29029;-66
2024/01/19 09:24:04;;;;;;;39.17;18.02;;;-2.10;99.90;;;;;;502986;236;27481;-66
2024/01/19 09:26:06;;;;;;;35.00;18.20;;;-2.10;99.90;;;;;;502950;236;27565;-65
2024/01/19 09:28:07;;;;;;;35.25;17.67;;;-2.10;99.90;;;;;;503032;236;27498;-67
2024/01/19 09:30:08;;;;;;;32.78;17.23;;;-2.00;99.90;;;;;;503037;236;27457;-66
2024/01/19 09:32:09;;;;;;;32.35;18.65;;;-1.80;99.90;;;;;;502986;236;27493;-66
2024/01/19 09:34:11;;;;;;;34.60;18.48;;;-1.60;99.90;;;;;;502969;236;28031;-65
2024/01/19 09:36:12;;;;;;;33.78;16.90;;;-1.60;99.90;;;;;;503001;236;27456;-65
2024/01/19 09:38:13;;;;;;;28.02;17.35;;;-1.70;99.90;;;;;;503016;236;27477;-66
2024/01/19 09:40:16;;;;;;;36.67;17.58;;;-1.60;99.90;;;;;;503027;236;27524;-66
2024/01/19 09:42:16;;;;;;;31.37;17.52;;;-1.50;99.90;;;;;;502925;236;27521;-66
2024/01/19 09:44:17;;;;;;;27.27;15.50;;;-1.40;99.90;;;;;;503019;236;27821;-67
2024/01/19 09:46:21;;;;;;;34.67;18.52;;;-1.40;99.90;;;;;;503007;236;28016;-65
2024/01/19 09:48:23;;;;;;;38.92;18.23;;;-1.30;99.90;;;;;;502910;236;27895;-65
2024/01/19 09:50:23;;;;;;;34.35;17.83;;;-1.20;99.90;;;;;;502987;236;27558;-66
2024/01/19 09:52:26;;;;;;;36.03;18.92;;;-1.30;99.90;;;;;;502860;236;27560;-66
2024/01/19 09:54:26;;;;;;;33.70;16.85;;;-1.30;99.90;;;;;;502829;236;27473;-66
2024/01/19 09:56:27;;;;;;;32.58;18.12;;;-1.30;99.90;;;;;;503016;236;27838;-67
2024/01/19 09:58:30;;;;;;;35.17;17.80;;;-1.20;99.90;;;;;;503022;236;28054;-66
2024/01/19 10:00:30;;;;;;;35.85;19.08;;;-1.20;99.90;;;;;;502946;236;29545;-67
2024/01/19 10:02:31;;;;;;;33.80;17.75;;;-1.20;99.90;;;;;;503012;236;27446;-66
2024/01/19 10:04:32;;;;;;;39.03;19.62;;;-1.30;99.90;;;;;;502968;236;27479;-66
2024/01/19 10:06:34;;;;;;;38.05;19.42;;;-1.40;99.90;;;;;;503037;236;27465;-67
2024/01/19 10:08:36;;;;;;;40.15;22.15;;;-1.50;99.90;;;;;;503038;236;27493;-66
2024/01/19 10:10:36;;;;;;;43.53;20.17;;;-1.40;99.90;;;;;;502952;236;27471;-66
2024/01/19 10:12:37;;;;;;;36.97;20.27;;;-1.40;99.90;;;;;;502989;236;27936;-66
2024/01/19 10:14:39;;;;;;;38.95;19.45;;;-1.30;99.90;;;;;;502965;236;27524;-65
2024/01/19 10:16:40;;;;;;;32.55;18.23;;;-1.30;99.90;;;;;;503022;236;27502;-66
2024/01/19 10:18:41;;;;;;;41.30;18.67;;;-1.10;99.90;;;;;;503001;236;27439;-66
2024/01/19 10:20:42;;;;;;;32.85;17.33;;;-1.00;99.90;;;;;;502994;236;27497;-67
2024/01/19 10:22:44;;;;;;;40.90;19.62;;;-0.80;99.90;;;;;;503000;236;27902;-67
2024/01/19 10:24:45;;;;;;;31.65;18.70;;;-0.70;99.90;;;;;;502820;236;28081;-66
2024/01/19 10:26:46;;;;;;;41.10;19.65;;;-0.60;99.90;;;;;;503015;236;27953;-66
2024/01/19 10:28:47;;;;;;;33.40;18.48;;;-0.60;99.90;;;;;;502984;236;27441;-66
2024/01/19 10:30:49;;;;;;;38.65;18.92;;;-0.60;99.90;;;;;;502977;236;27497;-66
2024/01/19 10:32:51;;;;;;;34.97;17.45;;;-0.50;99.90;;;;;;503001;236;27487;-67
2024/01/19 10:34:52;;;;;;;39.85;20.00;;;-0.50;99.90;;;;;;502990;236;27490;-66